Terminal Aerodrome Forecast
Issued by NWS

Home | Current Version | Previous Version | Text Only | Print | Product List | Glossary On
Versions: 1 2 3 4 5 6 7 8 9 10 11 12 13
017
FTUS46 KPDT 202340
TAFDLS
TAF
KDLS 202340Z 2100/2124 VRB05KT P6SM FEW150 BKN200
     FM210500 30007KT P6SM BKN100 OVC150
     FM211200 27007KT P6SM SCT050 BKN070
     FM211500 26018G25KT P6SM SCT050
     FM211800 31022G30KT P6SM FEW050 FEW300=

USA.gov is the U.S. government's official web portal to all federal, state and local government web resources and services.